Time;durP1;ratioP1;P1;durP2;ratioP2;P2;SDS_P1;SDS_P2;PMS_P1;PMS_P2;Temp;Humidity;BMP_temperature;BMP_pressure;BME280_temperature;BME280_humidity;BME280_pressure;Samples;Min_cycle;Max_cycle;Signal;HPM_P1;HPM_P2
2024/01/04 00:01:36;;;;;;;;;5.33;0.33;;;;;10.57;74.86;100127.97;4977084;28;45449;-46
2024/01/04 00:04:01;;;;;;;;;0.67;0.67;;;;;10.55;74.94;100143.25;4977270;28;45368;-48
2024/01/04 00:06:26;;;;;;;;;0.33;0.33;;;;;10.56;75.13;100131.63;4977940;28;45373;-47
2024/01/04 00:08:52;;;;;;;;;6.00;1.67;;;;;10.56;74.91;100130.78;4977511;28;46086;-46
2024/01/04 00:11:17;;;;;;;;;1.33;0.33;;;;;10.53;75.11;100152.38;4977436;28;45398;-45
2024/01/04 00:13:42;;;;;;;;;1.33;1.00;;;;;10.51;75.28;100146.41;4977318;28;45450;-48
2024/01/04 00:16:12;;;;;;;;;3.67;1.00;;;;;10.44;75.20;100148.84;4977901;28;45315;-46
2024/01/04 00:18:38;;;;;;;;;1.67;1.00;;;;;10.45;75.00;100135.41;4977078;28;46389;-45
2024/01/04 00:21:03;;;;;;;;;4.00;1.00;;;;;10.45;75.12;100140.75;4977290;28;45493;-48
2024/01/04 00:23:31;;;;;;;;;3.00;1.00;;;;;10.40;74.94;100137.72;4977687;28;45345;-49
2024/01/04 00:25:57;;;;;;;;;4.67;1.00;;;;;10.43;75.45;100158.66;4977757;28;45263;-47
2024/01/04 00:28:22;;;;;;;;;1.67;1.67;;;;;10.43;75.24;100163.16;4977361;28;46083;-48
2024/01/04 00:30:48;;;;;;;;;2.00;0.00;;;;;10.41;74.82;100170.47;4977311;28;45320;-47
2024/01/04 00:33:13;;;;;;;;;2.00;1.00;;;;;10.39;75.28;100161.81;4977601;28;45307;-47
2024/01/04 00:35:38;;;;;;;;;1.67;0.33;;;;;10.39;75.26;100162.63;4977544;28;45307;-46
2024/01/04 00:38:03;;;;;;;;;5.67;2.00;;;;;10.37;75.08;100175.28;4975690;28;46342;-48
2024/01/04 00:40:29;;;;;;;;;2.67;1.00;;;;;10.32;75.05;100166.91;4975694;28;45426;-46
2024/01/04 00:42:54;;;;;;;;;2.00;2.00;;;;;10.34;75.22;100178.25;4975835;28;45314;-46
2024/01/04 00:45:20;;;;;;;;;2.33;0.67;;;;;10.35;75.07;100189.69;4975937;28;45218;-45
2024/01/04 00:47:45;;;;;;;;;1.00;1.00;;;;;10.35;75.24;100187.88;4975623;28;45529;-49
2024/01/04 00:50:11;;;;;;;;;3.00;1.00;;;;;10.35;75.18;100182.56;4975568;28;45366;-48
2024/01/04 00:52:36;;;;;;;;;3.67;2.00;;;;;10.35;75.33;100192.34;4975809;28;45366;-47
2024/01/04 00:55:01;;;;;;;;;1.00;1.00;;;;;10.32;75.35;100198.00;4976117;28;45391;-49
2024/01/04 00:57:26;;;;;;;;;0.00;0.00;;;;;10.33;75.22;100202.34;4975603;28;45452;-47
2024/01/04 00:59:52;;;;;;;;;1.00;1.00;;;;;10.34;75.38;100206.66;4975783;28;45470;-48
2024/01/04 01:02:17;;;;;;;;;1.00;1.00;;;;;10.32;75.07;100214.78;4975755;28;45315;-49
2024/01/04 01:04:43;;;;;;;;;2.00;1.00;;;;;10.30;75.18;100213.28;4975644;28;45364;-48
2024/01/04 01:07:08;;;;;;;;;0.33;0.33;;;;;10.31;75.35;100212.28;4975927;28;46373;-48
2024/01/04 01:09:33;;;;;;;;;5.67;1.00;;;;;10.34;75.34;100215.47;4975928;28;45666;-47
2024/01/04 01:11:58;;;;;;;;;3.00;1.00;;;;;10.30;75.42;100219.44;4975565;28;45425;-47
2024/01/04 01:14:24;;;;;;;;;2.00;1.00;;;;;10.34;75.20;100225.25;4974706;28;45446;-47
2024/01/04 01:16:49;;;;;;;;;2.67;1.00;;;;;10.35;75.25;100237.56;4975207;28;47117;-46
2024/01/04 01:19:14;;;;;;;;;6.00;2.00;;;;;10.31;75.47;100225.56;4975351;28;45383;-48
2024/01/04 01:21:41;;;;;;;;;5.00;1.00;;;;;10.33;75.49;100226.25;4975495;28;45234;-50
2024/01/04 01:24:06;;;;;;;;;1.67;1.00;;;;;10.29;75.65;100224.91;4975557;28;45315;-46
2024/01/04 01:26:31;;;;;;;;;0.67;0.00;;;;;10.31;75.42;100229.06;4975114;28;46208;-47
2024/01/04 01:28:57;;;;;;;;;3.33;1.33;;;;;10.32;75.58;100230.72;4975154;28;49185;-48
2024/01/04 01:31:22;;;;;;;;;2.00;1.00;;;;;10.28;75.50;100221.44;4975735;28;45314;-48
2024/01/04 01:33:47;;;;;;;;;3.00;1.33;;;;;10.28;75.54;100239.16;4975713;28;45549;-47
2024/01/04 01:36:13;;;;;;;;;1.67;1.67;;;;;10.28;75.61;100241.81;4935679;28;1147020;-49
2024/01/04 01:38:38;;;;;;;;;1.00;1.00;;;;;10.26;75.72;100247.31;4976719;28;45391;-48
2024/01/04 01:41:03;;;;;;;;;4.67;1.00;;;;;10.26;75.80;100249.97;4976552;28;45269;-47
2024/01/04 01:43:29;;;;;;;;;3.00;1.00;;;;;10.18;75.59;100225.97;4976889;28;45367;-47
2024/01/04 01:45:54;;;;;;;;;4.00;1.00;;;;;10.18;75.49;100239.25;4976317;28;45585;-46
2024/01/04 01:48:19;;;;;;;;;4.00;2.00;;;;;10.21;75.35;100253.06;4959261;28;45380;-46
2024/01/04 01:50:45;;;;;;;;;3.00;0.00;;;;;10.23;75.48;100263.53;4976606;28;45158;-48
2024/01/04 01:53:11;;;;;;;;;5.33;1.00;;;;;10.09;75.41;100241.03;4976683;28;45490;-51
2024/01/04 01:55:37;;;;;;;;;1.33;1.33;;;;;10.21;75.31;100269.03;4976298;28;46213;-47
2024/01/04 01:58:03;;;;;;;;;3.00;0.00;;;;;10.21;75.71;100274.34;4976088;28;45430;-48
2024/01/04 02:00:29;;;;;;;;;1.00;1.00;;;;;10.21;75.51;100276.16;4976406;28;45381;-47
2024/01/04 02:02:55;;;;;;;;;1.67;1.00;;;;;10.18;75.38;100279.13;4976635;28;45441;-46
2024/01/04 02:05:20;;;;;;;;;1.00;1.00;;;;;10.14;75.63;100275.94;4976117;28;45419;-46
2024/01/04 02:07:46;;;;;;;;;2.00;1.00;;;;;10.17;75.75;100280.13;4975884;28;52817;-47
2024/01/04 02:10:12;;;;;;;;;2.33;1.00;;;;;10.14;75.87;100280.41;4976387;28;45235;-48
2024/01/04 02:12:38;;;;;;;;;0.00;0.00;;;;;10.15;76.00;100296.19;4976407;28;45319;-46
2024/01/04 02:15:04;;;;;;;;;0.67;0.67;;;;;10.15;75.85;100290.06;4976018;28;46193;-47
2024/01/04 02:17:30;;;;;;;;;3.00;3.00;;;;;10.15;75.93;100298.03;4975940;28;45378;-46
2024/01/04 02:19:57;;;;;;;;;6.33;1.00;;;;;10.12;76.15;100309.81;4976060;28;45351;-48
2024/01/04 02:22:22;;;;;;;;;3.67;2.00;;;;;10.10;76.21;100314.44;4976258;28;45503;-46
2024/01/04 02:24:48;;;;;;;;;1.67;1.67;;;;;10.04;76.33;100303.63;4975779;28;47137;-48
2024/01/04 02:27:13;;;;;;;;;7.67;2.00;;;;;10.09;75.84;100323.41;4979254;28;45425;-48
2024/01/04 02:29:39;;;;;;;;;0.00;0.00;;;;;10.08;75.85;100307.63;4979695;28;45818;-51
2024/01/04 02:32:05;;;;;;;;;2.33;1.00;;;;;10.06;75.87;100326.38;4979543;28;45414;-46
2024/01/04 02:34:30;;;;;;;;;2.00;1.00;;;;;10.07;75.87;100322.75;4979314;28;46194;-47
2024/01/04 02:36:57;;;;;;;;;3.00;1.00;;;;;10.07;75.67;100333.38;4979125;28;45345;-45
2024/01/04 02:39:22;;;;;;;;;0.00;0.00;;;;;10.06;75.98;100320.22;4979477;28;45311;-47
2024/01/04 02:41:47;;;;;;;;;0.67;0.67;;;;;10.06;75.55;100322.88;4979361;28;45465;-47
2024/01/04 02:44:13;;;;;;;;;0.67;0.67;;;;;10.05;75.90;100329.19;4978962;28;47445;-49
2024/01/04 02:46:38;;;;;;;;;1.33;1.00;;;;;10.05;75.56;100338.00;4978839;28;45456;-45
2024/01/04 02:49:04;;;;;;;;;3.00;1.00;;;;;10.03;75.38;100337.31;4979011;28;45292;-48
2024/01/04 02:51:29;;;;;;;;;2.33;0.00;;;;;10.02;75.33;100340.94;4979233;28;45593;-49
2024/01/04 02:53:54;;;;;;;;;1.33;1.00;;;;;9.95;75.54;100335.44;4978710;28;47011;-47
2024/01/04 02:56:20;;;;;;;;;5.67;1.33;;;;;10.03;75.20;100355.94;4978960;28;45285;-44
2024/01/04 02:58:45;;;;;;;;;10.67;5.00;;;;;10.06;75.48;100346.78;4979022;28;45307;-46
2024/01/04 03:01:17;;;;;;;;;14.67;7.00;;;;;10.10;75.16;100356.13;4979095;28;45473;-46
2024/01/04 03:03:42;;;;;;;;;6.67;1.00;;;;;10.12;74.89;100352.34;4978642;28;47105;-48
2024/01/04 03:06:07;;;;;;;;;1.00;1.00;;;;;10.18;75.19;100366.84;4978707;28;45225;-49
2024/01/04 03:08:33;;;;;;;;;2.33;0.67;;;;;10.23;74.53;100359.22;4977437;28;45451;-50
2024/01/04 03:10:58;;;;;;;;;1.00;1.00;;;;;10.27;74.51;100370.44;4978994;28;45412;-49
2024/01/04 03:13:23;;;;;;;;;1.00;1.00;;;;;10.32;74.53;100365.47;4978596;28;45495;-48
2024/01/04 03:15:49;;;;;;;;;2.33;1.33;;;;;10.35;74.49;100363.34;4978024;28;49971;-48
2024/01/04 03:18:14;;;;;;;;;1.00;1.00;;;;;10.39;74.42;100370.03;4978654;28;45480;-46
2024/01/04 03:20:39;;;;;;;;;2.00;0.00;;;;;10.39;73.90;100358.56;4978544;28;45436;-49
2024/01/04 03:23:05;;;;;;;;;2.33;0.67;;;;;10.49;74.12;100369.94;4977079;28;49111;-45
2024/01/04 03:25:30;;;;;;;;;2.67;0.00;;;;;10.52;73.78;100369.63;4978569;28;45239;-45
2024/01/04 03:27:55;;;;;;;;;1.00;1.00;;;;;10.55;73.90;100387.94;4978306;28;45654;-47
2024/01/04 03:30:20;;;;;;;;;2.00;0.67;;;;;10.57;73.63;100385.94;4978758;28;45679;-47
2024/01/04 03:32:46;;;;;;;;;1.00;1.00;;;;;10.60;73.75;100382.16;4978234;28;46150;-48
2024/01/04 03:35:11;;;;;;;;;3.00;1.00;;;;;10.62;73.67;100386.34;4977999;28;49261;-47
2024/01/04 03:37:36;;;;;;;;;5.00;1.67;;;;;10.63;73.89;100381.84;4977101;28;45329;-48
2024/01/04 03:40:02;;;;;;;;;4.67;0.33;;;;;10.64;73.95;100378.19;4978642;28;45498;-46
2024/01/04 03:42:27;;;;;;;;;4.33;1.00;;;;;10.52;73.84;100372.28;4977695;28;46080;-47
2024/01/04 03:44:53;;;;;;;;;6.00;1.00;;;;;10.53;74.15;100373.94;4978437;28;45336;-48
2024/01/04 03:47:19;;;;;;;;;1.00;1.00;;;;;10.66;73.78;100398.34;4978166;28;45315;-48
2024/01/04 03:49:44;;;;;;;;;1.00;0.00;;;;;10.65;74.12;100393.97;4978270;28;45466;-47
2024/01/04 03:52:09;;;;;;;;;1.67;0.67;;;;;10.68;74.33;100387.53;4977783;28;46360;-49
2024/01/04 03:54:34;;;;;;;;;5.67;2.00;;;;;10.68;73.82;100387.53;4978285;28;45464;-51
2024/01/04 03:57:00;;;;;;;;;6.33;1.33;;;;;10.68;73.74;100393.69;4978748;28;45746;-50
2024/01/04 03:59:25;;;;;;;;;5.33;0.00;;;;;10.66;73.93;100387.69;4977664;28;45511;-47
2024/01/04 04:01:51;;;;;;;;;6.00;1.00;;;;;10.67;74.44;100391.19;4977795;28;46322;-48
2024/01/04 04:04:16;;;;;;;;;2.67;1.33;;;;;10.67;74.33;100394.69;4977778;28;45247;-49
2024/01/04 04:06:41;;;;;;;;;2.33;0.00;;;;;10.67;73.99;100386.69;4977738;28;45367;-50
2024/01/04 04:09:07;;;;;;;;;0.00;0.00;;;;;10.65;74.01;100395.81;4978063;28;45213;-49
2024/01/04 04:11:33;;;;;;;;;4.00;1.33;;;;;10.59;74.17;100397.28;4977393;28;47275;-45
2024/01/04 04:13:59;;;;;;;;;1.00;1.00;;;;;10.58;73.66;100394.78;4977639;28;45406;-48
2024/01/04 04:16:24;;;;;;;;;2.33;0.67;;;;;10.55;74.28;100403.91;4977833;28;45326;-48
2024/01/04 04:18:49;;;;;;;;;2.33;0.33;;;;;10.53;74.35;100413.84;4978103;28;45450;-47
2024/01/04 04:21:23;;;;;;;;;2.00;0.67;;;;;10.53;74.05;100402.38;4977564;28;46301;-51
2024/01/04 04:23:52;;;;;;;;;2.33;1.00;;;;;10.50;74.01;100403.53;4977392;28;45526;-49
2024/01/04 04:26:20;;;;;;;;;4.33;3.00;;;;;10.44;74.45;100407.63;4977449;28;45382;-49
2024/01/04 04:28:49;;;;;;;;;2.33;1.00;;;;;10.43;74.09;100407.78;4977697;28;45366;-50
2024/01/04 04:31:16;;;;;;;;;1.00;1.00;;;;;10.29;74.06;100406.53;4977364;28;46381;-50
2024/01/04 04:33:44;;;;;;;;;1.00;1.00;;;;;10.36;74.19;100422.69;4977208;28;45335;-48
2024/01/04 04:36:10;;;;;;;;;2.00;0.67;;;;;10.31;74.15;100423.13;4977497;28;45417;-48
2024/01/04 04:38:35;;;;;;;;;4.00;1.00;;;;;10.27;74.55;100427.09;4977586;28;45374;-48
2024/01/04 04:41:03;;;;;;;;;5.67;2.00;;;;;10.09;74.41;100404.97;4977241;28;45960;-50
2024/01/04 04:43:28;;;;;;;;;4.33;1.33;;;;;10.19;74.61;100422.50;4977987;28;45519;-49
2024/01/04 04:45:55;;;;;;;;;0.00;0.00;;;;;10.17;74.66;100423.66;4977498;28;45280;-47
2024/01/04 04:48:20;;;;;;;;;2.00;1.00;;;;;10.13;74.75;100422.28;4977248;28;45411;-49
2024/01/04 04:50:46;;;;;;;;;8.00;2.00;;;;;10.09;75.06;100432.38;4976674;28;47937;-46
2024/01/04 04:53:11;;;;;;;;;1.00;1.00;;;;;10.06;75.20;100432.66;4977189;28;45534;-47
2024/01/04 04:55:36;;;;;;;;;2.00;0.00;;;;;10.05;75.30;100427.53;4977145;28;45365;-49
2024/01/04 04:58:01;;;;;;;;;4.33;1.00;;;;;10.03;75.44;100438.31;4975906;28;45611;-48
2024/01/04 05:00:27;;;;;;;;;2.00;2.00;;;;;9.99;75.34;100445.75;4976735;28;46177;-50
2024/01/04 05:02:52;;;;;;;;;3.00;1.67;;;;;9.94;75.39;100432.09;4976710;28;52478;-48
2024/01/04 05:05:17;;;;;;;;;2.33;2.33;;;;;9.92;75.65;100436.69;4977072;28;45510;-49
2024/01/04 05:07:43;;;;;;;;;3.00;1.00;;;;;9.90;75.64;100438.69;4977085;28;45433;-50
2024/01/04 05:10:08;;;;;;;;;2.00;0.33;;;;;9.90;75.44;100437.81;4976663;28;47085;-50
2024/01/04 05:12:33;;;;;;;;;4.67;1.33;;;;;9.87;75.43;100441.63;4976619;28;45405;-49
2024/01/04 05:14:59;;;;;;;;;7.00;1.00;;;;;9.85;75.83;100446.22;4976837;28;45389;-48
2024/01/04 05:17:24;;;;;;;;;8.00;1.00;;;;;9.84;75.89;100457.03;4976939;28;45361;-49
2024/01/04 05:19:50;;;;;;;;;4.67;1.00;;;;;9.81;76.09;100450.19;4976465;28;46204;-48
2024/01/04 05:22:16;;;;;;;;;3.00;1.00;;;;;9.82;76.26;100458.97;4976693;28;45399;-50
2024/01/04 05:24:41;;;;;;;;;2.00;1.67;;;;;9.80;76.04;100458.31;4976797;28;45430;-49
2024/01/04 05:27:06;;;;;;;;;8.00;1.33;;;;;9.80;76.08;100458.31;4976934;28;45375;-49
2024/01/04 05:29:32;;;;;;;;;2.33;0.67;;;;;9.78;76.34;100460.28;4976588;28;46219;-48
2024/01/04 05:31:57;;;;;;;;;5.00;1.00;;;;;9.78;76.10;100476.22;4976338;28;45399;-48
2024/01/04 05:34:23;;;;;;;;;2.00;1.33;;;;;9.75;76.19;100466.72;4976450;28;45303;-48
2024/01/04 05:36:48;;;;;;;;;6.33;3.67;;;;;9.72;76.27;100475.81;4976431;28;45520;-45
2024/01/04 05:39:13;;;;;;;;;3.33;1.00;;;;;9.70;76.77;100472.47;4976139;28;49735;-47
2024/01/04 05:41:39;;;;;;;;;4.33;1.33;;;;;9.70;76.70;100469.81;4976595;28;45462;-45
2024/01/04 05:44:06;;;;;;;;;4.67;1.00;;;;;9.70;76.32;100467.16;4976583;28;45280;-46
2024/01/04 05:46:32;;;;;;;;;5.67;1.00;;;;;9.70;76.44;100469.81;4976807;28;45398;-46
2024/01/04 05:48:58;;;;;;;;;2.33;0.00;;;;;9.70;76.46;100474.31;4976293;28;46093;-46
2024/01/04 05:51:23;;;;;;;;;0.00;0.00;;;;;9.68;76.80;100470.94;4976235;28;45462;-48
2024/01/04 05:53:48;;;;;;;;;5.00;1.33;;;;;9.62;76.77;100472.38;4976550;28;45426;-47
2024/01/04 05:56:14;;;;;;;;;1.67;1.00;;;;;9.63;77.02;100479.34;4976832;28;45240;-49
2024/01/04 05:58:39;;;;;;;;;3.00;1.67;;;;;9.61;77.26;100483.16;4976625;28;45539;-45
2024/01/04 06:01:04;;;;;;;;;2.67;1.33;;;;;9.59;77.02;100491.25;4978186;28;45411;-47
2024/01/04 06:03:30;;;;;;;;;7.33;2.00;;;;;9.57;77.52;100498.53;4979754;28;45504;-47
2024/01/04 06:05:55;;;;;;;;;6.00;3.00;;;;;9.44;77.40;100479.47;4979828;28;45409;-45
2024/01/04 06:08:20;;;;;;;;;2.00;0.33;;;;;9.52;77.84;100490.16;4979520;28;46276;-45
2024/01/04 06:10:46;;;;;;;;;0.00;0.00;;;;;9.41;77.64;100485.88;4979449;28;45395;-49
2024/01/04 06:13:12;;;;;;;;;3.00;1.00;;;;;9.49;77.32;100490.47;4979645;28;45342;-46
2024/01/04 06:15:37;;;;;;;;;1.67;1.00;;;;;9.50;77.77;100497.44;4979605;28;45421;-48
2024/01/04 06:18:02;;;;;;;;;5.67;2.00;;;;;9.44;77.86;100480.28;4979232;28;48953;-48
2024/01/04 06:20:28;;;;;;;;;3.00;1.00;;;;;9.42;78.46;100495.50;4979115;28;45311;-45
2024/01/04 06:22:53;;;;;;;;;3.00;2.00;;;;;9.44;77.99;100496.22;4979543;28;45344;-44
2024/01/04 06:25:19;;;;;;;;;0.67;0.67;;;;;9.43;78.04;100502.50;4979453;28;45493;-51
2024/01/04 06:27:44;;;;;;;;;2.00;1.00;;;;;9.43;77.99;100505.13;4979078;28;45381;-48
2024/01/04 06:30:09;;;;;;;;;4.67;2.00;;;;;9.40;78.34;100499.31;4979106;28;45489;-45
2024/01/04 06:32:35;;;;;;;;;6.67;6.33;;;;;9.42;78.24;100508.78;4979065;28;45312;-50
2024/01/04 06:35:00;;;;;;;;;5.00;1.00;;;;;9.45;78.22;100508.50;4979369;28;45242;-49
2024/01/04 06:37:26;;;;;;;;;2.00;2.00;;;;;9.47;78.11;100506.53;4978736;28;47093;-47
2024/01/04 06:39:51;;;;;;;;;3.00;1.67;;;;;9.48;78.50;100512.66;4979058;28;45205;-49
2024/01/04 06:42:19;;;;;;;;;2.00;1.00;;;;;9.45;78.65;100511.16;4979149;28;45480;-46
2024/01/04 06:44:45;;;;;;;;;3.00;1.00;;;;;9.49;78.88;100520.50;4979329;28;45382;-50
2024/01/04 06:47:10;;;;;;;;;1.33;1.33;;;;;9.46;78.88;100506.69;4978591;28;46281;-46
2024/01/04 06:49:36;;;;;;;;;5.00;1.00;;;;;9.55;78.48;100529.69;4977456;28;45350;-49
2024/01/04 06:52:01;;;;;;;;;2.00;0.67;;;;;9.57;78.24;100526.91;4978860;28;45395;-48
2024/01/04 06:54:27;;;;;;;;;6.00;2.00;;;;;9.56;78.50;100534.03;4979038;28;45344;-49
2024/01/04 06:56:52;;;;;;;;;10.00;2.67;;;;;9.55;78.16;100524.38;4978644;28;46962;-45
2024/01/04 06:59:17;;;;;;;;;2.00;1.67;;;;;9.61;78.38;100539.75;4978624;28;45414;-48
2024/01/04 07:01:42;;;;;;;;;2.67;1.00;;;;;9.63;78.46;100534.28;4979014;28;45444;-49
2024/01/04 07:04:08;;;;;;;;;2.00;2.00;;;;;9.64;78.10;100536.78;4978961;28;45331;-49
2024/01/04 07:06:33;;;;;;;;;3.00;1.00;;;;;9.66;78.16;100542.81;4978384;28;46046;-49
2024/01/04 07:08:58;;;;;;;;;6.00;1.00;;;;;9.65;78.38;100545.59;4978620;28;45418;-47
2024/01/04 07:11:24;;;;;;;;;6.67;2.00;;;;;9.61;78.30;100536.28;4978828;28;45383;-49
2024/01/04 07:13:49;;;;;;;;;1.67;1.00;;;;;9.59;79.15;100543.53;4978874;28;45695;-49
2024/01/04 07:16:15;;;;;;;;;6.33;2.00;;;;;9.54;78.59;100551.09;4978322;28;46226;-46
2024/01/04 07:18:41;;;;;;;;;5.33;2.00;;;;;9.52;78.97;100561.84;4978623;28;45322;-48
2024/01/04 07:21:06;;;;;;;;;6.33;3.00;;;;;9.53;79.12;100563.56;4978358;28;45490;-46
2024/01/04 07:23:31;;;;;;;;;2.33;1.00;;;;;9.53;79.04;100562.72;4978815;28;45443;-45
2024/01/04 07:25:56;;;;;;;;;7.00;1.33;;;;;9.54;79.26;100567.03;4978039;28;50836;-46
2024/01/04 07:28:22;;;;;;;;;3.00;3.00;;;;;9.54;79.19;100575.84;4977232;28;45447;-45
2024/01/04 07:30:47;;;;;;;;;5.00;0.33;;;;;9.45;79.20;100552.81;4978406;28;45313;-47
2024/01/04 07:33:15;;;;;;;;;2.00;0.00;;;;;9.47;78.62;100548.19;4978592;28;45490;-46
2024/01/04 07:35:40;;;;;;;;;1.33;0.67;;;;;9.58;79.02;100568.41;4977994;28;46576;-48
2024/01/04 07:38:05;;;;;;;;;5.33;2.00;;;;;9.60;79.20;100574.41;4977725;28;45292;-49
2024/01/04 07:40:31;;;;;;;;;3.67;0.33;;;;;9.18;79.34;100497.81;4978298;28;45418;-46
2024/01/04 07:42:56;;;;;;;;;3.00;1.00;;;;;9.62;79.14;100567.16;4978291;28;45501;-47
2024/01/04 07:45:21;;;;;;;;;3.00;1.00;;;;;9.59;79.59;100562.97;4978220;28;46167;-51
2024/01/04 07:47:47;;;;;;;;;2.67;1.00;;;;;9.54;79.68;100557.25;4977810;28;47663;-47
2024/01/04 07:50:12;;;;;;;;;2.00;2.00;;;;;9.56;79.75;100570.38;4978032;28;45521;-47
2024/01/04 07:52:38;;;;;;;;;3.00;3.00;;;;;9.52;79.71;100561.00;4976953;28;45458;-46
2024/01/04 07:55:04;;;;;;;;;5.00;1.00;;;;;9.49;79.90;100556.84;4977887;28;45946;-47
2024/01/04 07:57:30;;;;;;;;;7.00;7.00;;;;;9.37;79.58;100542.06;4977565;28;45318;-50
2024/01/04 07:59:55;;;;;;;;;8.00;6.00;;;;;9.41;79.86;100549.59;4977950;28;45277;-46
2024/01/04 08:02:20;;;;;;;;;10.67;1.67;;;;;9.43;79.78;100552.09;4977772;28;45346;-49
2024/01/04 08:04:46;;;;;;;;;2.00;0.00;;;;;9.43;80.59;100554.75;4977569;28;45343;-50
2024/01/04 08:07:11;;;;;;;;;3.67;1.00;;;;;9.42;80.37;100553.91;4977675;28;45370;-48
2024/01/04 08:09:37;;;;;;;;;3.00;1.00;;;;;9.40;80.00;100547.09;4977893;28;45216;-46
2024/01/04 08:12:02;;;;;;;;;9.00;2.33;;;;;9.40;80.48;100552.41;4977786;28;45471;-46
2024/01/04 08:14:28;;;;;;;;;7.00;2.00;;;;;9.42;80.36;100559.22;4977512;28;47111;-47
2024/01/04 08:16:53;;;;;;;;;1.33;1.33;;;;;9.34;79.65;100531.72;4977607;28;45386;-47
2024/01/04 08:19:18;;;;;;;;;2.67;2.00;;;;;9.46;79.50;100562.44;4979164;28;45457;-48
2024/01/04 08:21:44;;;;;;;;;11.67;2.00;;;;;9.45;80.09;100560.78;4977711;28;45489;-45
2024/01/04 08:24:09;;;;;;;;;11.00;2.00;;;;;9.46;79.94;100554.47;4976679;28;47091;-44
2024/01/04 08:26:41;;;;;;;;;1.00;1.00;;;;;9.35;80.33;100536.88;4977380;28;45475;-47
2024/01/04 08:29:07;;;;;;;;;2.67;2.00;;;;;9.51;79.64;100560.19;4977430;28;45270;-46
2024/01/04 08:31:32;;;;;;;;;2.67;2.33;;;;;9.53;80.00;100568.84;4977484;28;45291;-47
2024/01/04 08:33:58;;;;;;;;;2.00;0.67;;;;;9.55;80.28;100564.22;4977194;28;46396;-48
2024/01/04 08:36:23;;;;;;;;;2.00;2.00;;;;;9.55;80.17;100558.91;4975371;28;45402;-49
2024/01/04 08:38:49;;;;;;;;;5.67;2.00;;;;;9.58;80.55;100555.97;4977352;28;45461;-46
2024/01/04 08:41:14;;;;;;;;;2.00;0.00;;;;;9.58;79.84;100548.00;4977720;28;45360;-45
2024/01/04 08:43:40;;;;;;;;;5.33;5.00;;;;;9.60;79.79;100554.00;4977243;28;45433;-46
2024/01/04 08:46:05;;;;;;;;;6.67;3.00;;;;;9.61;80.16;100549.56;4977005;28;45403;-48
2024/01/04 08:48:30;;;;;;;;;6.00;3.00;;;;;9.64;79.89;100557.22;4977364;28;45453;-48
2024/01/04 08:50:56;;;;;;;;;10.67;5.00;;;;;9.65;80.03;100551.78;4977476;28;45416;-46
2024/01/04 08:53:21;;;;;;;;;14.00;5.00;;;;;9.67;79.85;100557.75;4977086;28;45992;-48
2024/01/04 08:55:49;;;;;;;;;11.00;2.00;;;;;9.63;79.99;100540.44;4977191;28;45369;-50
2024/01/04 08:58:15;;;;;;;;;5.00;2.33;;;;;9.71;79.98;100553.00;4975527;28;45280;-47
2024/01/04 09:00:40;;;;;;;;;9.67;3.00;;;;;9.81;80.03;100552.94;4977013;28;45284;-47
2024/01/04 09:03:05;;;;;;;;;3.00;2.00;;;;;9.84;79.62;100555.31;4976610;28;47559;-49
2024/01/04 09:05:31;;;;;;;;;6.00;1.00;;;;;9.93;79.69;100563.25;4976839;28;45372;-48
2024/01/04 09:07:56;;;;;;;;;2.00;1.00;;;;;10.00;78.69;100558.19;4977007;28;45310;-45
2024/01/04 09:10:21;;;;;;;;;9.00;2.67;;;;;10.05;79.26;100558.56;4977168;28;45462;-50
2024/01/04 09:12:47;;;;;;;;;7.00;3.00;;;;;9.92;79.06;100534.16;4976749;28;46188;-45
2024/01/04 09:15:13;;;;;;;;;3.33;2.00;;;;;10.02;79.03;100558.84;4976623;28;45300;-49
2024/01/04 09:17:41;;;;;;;;;5.33;2.67;;;;;10.09;79.26;100562.59;4976998;28;45432;-51
2024/01/04 09:20:06;;;;;;;;;5.00;5.00;;;;;10.21;78.86;100568.56;4977072;28;45352;-50
2024/01/04 09:22:32;;;;;;;;;3.33;3.00;;;;;10.52;78.78;100558.47;4976374;28;46206;-46
2024/01/04 09:24:57;;;;;;;;;6.67;3.00;;;;;10.90;77.73;100559.13;4976650;28;45447;-49
2024/01/04 09:27:23;;;;;;;;;12.00;3.00;;;;;11.01;76.11;100558.09;4976767;28;45497;-45
2024/01/04 09:29:50;;;;;;;;;5.00;3.33;;;;;11.08;76.25;100561.78;4976828;28;45367;-46
2024/01/04 09:32:16;;;;;;;;;9.33;5.00;;;;;11.08;76.22;100535.16;4991265;28;45533;-48
2024/01/04 09:34:41;;;;;;;;;7.33;2.33;;;;;11.21;75.77;100549.75;4975099;28;45300;-48
2024/01/04 09:37:06;;;;;;;;;11.33;4.67;;;;;11.34;75.05;100557.34;4979744;28;45481;-46
2024/01/04 09:39:32;;;;;;;;;4.67;3.33;;;;;11.40;75.19;100543.38;4980228;28;45245;-51
2024/01/04 09:41:58;;;;;;;;;7.67;4.00;;;;;11.51;74.62;100560.09;4979507;28;48802;-49
2024/01/04 09:44:24;;;;;;;;;6.00;3.33;;;;;11.75;74.21;100549.56;4979757;28;45376;-49
2024/01/04 09:46:53;;;;;;;;;7.33;3.00;;;;;11.87;74.13;100558.16;4979611;28;45417;-48
2024/01/04 09:49:19;;;;;;;;;7.33;3.67;;;;;12.16;73.19;100563.94;4979909;28;45506;-49
2024/01/04 09:51:44;;;;;;;;;8.00;2.00;;;;;12.61;72.91;100559.22;4979485;28;46973;-46
2024/01/04 09:54:10;;;;;;;;;7.67;4.00;;;;;13.45;70.11;100558.09;4979627;28;45334;-46
2024/01/04 09:56:42;;;;;;;;;9.33;3.67;;;;;13.86;69.36;100552.59;4979638;28;45462;-48
2024/01/04 09:59:08;;;;;;;;;3.33;1.67;;;;;14.68;68.83;100547.72;4979780;28;45371;-48
2024/01/04 10:01:37;;;;;;;;;16.00;4.00;;;;;15.15;66.04;100547.50;4979384;28;45343;-50
2024/01/04 10:04:14;;;;;;;;;12.00;3.33;;;;;15.28;63.60;100543.34;4979564;28;45439;-46
2024/01/04 10:06:42;;;;;;;;;8.33;3.00;;;;;14.77;64.01;100527.06;4978516;28;45494;-47
2024/01/04 10:09:19;;;;;;;;;8.33;3.00;;;;;14.50;65.15;100539.13;4979472;28;45272;-51
2024/01/04 10:12:03;;;;;;;;;9.00;2.00;;;;;14.25;66.05;100543.78;4978795;28;46192;-48
2024/01/04 10:14:30;;;;;;;;;6.33;3.00;;;;;13.99;67.08;100544.91;4979201;28;45383;-46
2024/01/04 10:16:56;;;;;;;;;7.33;3.33;;;;;13.69;68.02;100542.00;4979375;28;45351;-47
2024/01/04 10:19:22;;;;;;;;;6.67;6.00;;;;;13.34;68.42;100553.09;4979540;28;45547;-49
2024/01/04 10:21:48;;;;;;;;;11.67;8.67;;;;;13.02;69.66;100548.56;4978791;28;45555;-47
2024/01/04 10:24:15;;;;;;;;;19.33;11.67;;;;;12.73;70.55;100544.56;4978985;28;45418;-45
2024/01/04 10:26:44;;;;;;;;;16.00;11.33;;;;;12.45;71.92;100539.50;4978912;28;45601;-47
2024/01/04 10:29:09;;;;;;;;;14.33;7.00;;;;;12.22;72.64;100538.47;4979055;28;45407;-49
2024/01/04 10:31:35;;;;;;;;;11.00;8.33;;;;;12.09;72.79;100532.75;4978543;28;45945;-48
2024/01/04 10:34:01;;;;;;;;;7.00;6.33;;;;;11.93;73.34;100528.22;4978474;28;45320;-48
2024/01/04 10:36:32;;;;;;;;;3.67;2.00;;;;;11.75;73.72;100517.59;4978644;28;45495;-45
2024/01/04 10:38:59;;;;;;;;;11.33;4.33;;;;;11.74;74.32;100535.41;4978903;28;45346;-47
2024/01/04 10:41:28;;;;;;;;;10.00;7.00;;;;;11.65;74.82;100522.22;4978686;28;46027;-49
2024/01/04 10:44:05;;;;;;;;;5.33;3.67;;;;;11.59;75.04;100523.69;4978715;28;45348;-47
2024/01/04 10:46:31;;;;;;;;;6.67;3.00;;;;;11.58;75.50;100522.00;4978542;28;45380;-49
2024/01/04 10:48:58;;;;;;;;;8.00;5.33;;;;;11.55;76.14;100519.66;4980713;28;45988;-49
2024/01/04 10:51:26;;;;;;;;;8.33;4.00;;;;;11.57;75.88;100523.00;4980661;28;46397;-46
2024/01/04 10:53:57;;;;;;;;;9.33;5.67;;;;;11.52;75.95;100512.00;4979473;28;45467;-43
2024/01/04 10:56:23;;;;;;;;;4.00;4.00;;;;;11.51;75.75;100513.00;4978455;28;45249;-46
2024/01/04 10:58:50;;;;;;;;;6.33;6.00;;;;;11.45;76.10;100516.28;4978596;28;45246;-48
2024/01/04 11:01:16;;;;;;;;;8.67;3.33;;;;;11.39;76.69;100501.75;4978222;28;46007;-49
2024/01/04 11:03:43;;;;;;;;;12.00;4.67;;;;;11.39;76.86;100517.75;4978205;28;45678;-49
2024/01/04 11:06:10;;;;;;;;;10.00;5.67;;;;;11.32;77.45;100502.53;4978550;28;45471;-49
2024/01/04 11:08:35;;;;;;;;;9.33;4.67;;;;;11.27;77.54;100507.50;4978445;28;45482;-49
2024/01/04 11:11:02;;;;;;;;;8.67;3.67;;;;;11.20;78.06;100499.31;4978355;28;46488;-47
2024/01/04 11:13:28;;;;;;;;;12.33;5.33;;;;;11.20;78.12;100508.13;4977292;28;45383;-47
2024/01/04 11:15:58;;;;;;;;;10.33;6.00;;;;;11.16;78.09;100495.28;4978548;28;45395;-47
2024/01/04 11:19:04;;;;;;;;;9.00;3.33;;;;;11.08;78.69;100498.75;4978659;28;45380;-46
2024/01/04 11:22:06;;;;;;;;;11.00;6.00;;;;;11.04;78.22;100492.06;4978258;28;45294;-49